KOFF

Offutt AFB Airport

Omaha, Nebraska, USA
TAF KOFF 260200Z 2602/2708 24006KT 9999 FEW250 QNH2994INS BECMG 2620/2621 32012KT 9999 SCT080 BKN120 QNH2996INS TEMPO 2621/2624 35015G25KT BECMG 2707/2708 26009KT 9999 FEW250 QNH2995INS TX17/2617Z TN03/2611Z
Issued Valid From Valid To
Apr-26 @ 02:00 UTC
(2 hours ago)
Apr-26 @ 02:00 UTC
(2 hours ago)
Apr-27 @ 08:00 UTC
(-1 days ago)
Apr-26 @ 02:00 to Apr-26 @ 20:00
TAF KOFF 260200Z 2602/2708 24006KT 9999 FEW250 QNH2994INS
Wind Visibility Clouds Readings
240° at 6 knots Greater than 6 miles
  • Few at 25,000' AGL
Altimeter 29.94" Hg
Pressure 1014 hPa
Becoming Apr-26 @ 20:00 to Apr-27 @ 07:00
BECMG 2620/2621 32012KT 9999 SCT080 BKN120 QNH2996INS
Wind Visibility Clouds Readings
320° at 12 knots Greater than 6 miles
  • Scattered at 8,000' AGL
  • Broken at 12,000' AGL
Altimeter 29.97" Hg
Pressure 1015 hPa
Temporary Apr-26 @ 21:00 to Apr-27 @ 00:00
TEMPO 2621/2624 35015G25KT
Wind
350° at 15 knots
 Gusting to 25 knots
Becoming Apr-27 @ 07:00 to Apr-27 @ 08:00
BECMG 2707/2708 26009KT 9999 FEW250 QNH2995INS TX17/2617Z TN03/2611Z
Wind Visibility Clouds Readings
260° at 9 knots Greater than 6 miles
  • Few at 25,000' AGL
Altimeter 29.94" Hg
Pressure 1014 hPa
TAF KOFF 260200Z 2602/2708 24006KT 9999 FEW250 QNH2994INS BECMG 2620/2621 32012KT 9999 SCT080 BKN120 QNH2996INS TEMPO 2621/2624 35015G25KT BECMG 2707/2708 26009KT 9999 FEW250 QNH2995INS TX17/2617Z TN03/2611Z
Issued Apr-26 @ 02:00 UTC
(2 hours ago)
Valid From Apr-26 @ 02:00 UTC
(2 hours ago)
Valid To Apr-27 @ 08:00 UTC
(-1 days ago)
Apr-26 @ 02:00 - Apr-26 @ 20:00
Wind Visibility
240° at 6 knots Greater than 6 miles
Clouds
  • Few at 25,000' AGL
Becoming Apr-26 @ 20:00 - Apr-27 @ 07:00
Wind Visibility
320° at 12 knots Greater than 6 miles
Clouds
  • Scattered at 8,000' AGL
  • Broken at 12,000' AGL
Temporary Apr-26 @ 21:00 - Apr-27 @ 00:00
Wind
350° at 15 knots
 Gusting to 25 knots
Becoming Apr-27 @ 07:00 - Apr-27 @ 08:00
Wind Visibility
260° at 9 knots Greater than 6 miles
Clouds
  • Few at 25,000' AGL